createdAt,value
2023-04-02T00:02:34.098Z,2.03
2023-04-02T00:05:30.666Z,3.08
2023-04-02T00:08:03.437Z,3.40
2023-04-02T00:10:35.056Z,1.80
2023-04-02T00:13:06.729Z,4.15
2023-04-02T00:15:35.596Z,4.00
2023-04-02T00:18:04.964Z,2.28
2023-04-02T00:20:38.630Z,2.90
2023-04-02T00:23:09.123Z,7.68
2023-04-02T00:25:42.986Z,2.20
2023-04-02T00:28:14.983Z,2.97
2023-04-02T00:30:49.516Z,2.08
2023-04-02T00:33:20.937Z,3.53
2023-04-02T00:35:50.481Z,2.63
2023-04-02T00:38:25.677Z,3.42
2023-04-02T00:40:58.043Z,3.17
2023-04-02T00:43:28.364Z,3.58
2023-04-02T00:45:59.101Z,2.33
2023-04-02T00:48:41.005Z,3.67
2023-04-02T00:51:23.357Z,2.95
2023-04-02T00:53:56.883Z,4.40
2023-04-02T00:56:29.503Z,4.22
2023-04-02T00:58:58.889Z,6.07
2023-04-02T01:01:34.245Z,2.40
2023-04-02T01:04:05.744Z,4.53
2023-04-02T01:06:37.266Z,5.10
2023-04-02T01:09:14.992Z,3.92
2023-04-02T01:12:15.854Z,3.95
2023-04-02T01:14:52.842Z,4.07
2023-04-02T01:17:43.050Z,3.75
2023-04-02T01:20:48.247Z,1.92
2023-04-02T01:23:23.119Z,3.00
2023-04-02T01:25:59.161Z,2.67
2023-04-02T01:28:33.676Z,2.67
2023-04-02T01:31:05.013Z,1.80
2023-04-02T01:33:36.676Z,2.97
2023-04-02T01:36:11.092Z,2.35
2023-04-02T01:38:44.283Z,5.20
2023-04-02T01:41:21.965Z,2.97
2023-04-02T01:43:56.918Z,2.58
2023-04-02T01:46:28.431Z,2.05
2023-04-02T01:48:57.524Z,7.15
2023-04-02T01:51:29.781Z,3.72
2023-04-02T01:54:01.458Z,6.10
2023-04-02T01:56:31.187Z,2.10
2023-04-02T01:59:01.434Z,2.72
2023-04-02T02:01:36.345Z,2.05
2023-04-02T02:04:04.954Z,2.88
2023-04-02T02:06:33.385Z,2.92
2023-04-02T02:09:04.789Z,3.53
2023-04-02T02:11:36.564Z,3.58
2023-04-02T02:14:12.901Z,2.33
2023-04-02T02:16:43.047Z,1.98
2023-04-02T02:19:22.872Z,7.57
2023-04-02T02:21:53.431Z,2.17
2023-04-02T02:24:24.445Z,2.10
2023-04-02T02:27:02.824Z,3.42
2023-04-02T02:29:36.554Z,3.33
2023-04-02T02:32:08.469Z,2.05
2023-04-02T02:34:43.007Z,3.00
2023-04-02T02:37:17.660Z,2.50
2023-04-02T02:39:49.032Z,3.67
2023-04-02T02:42:24.745Z,2.90
2023-04-02T02:44:56.222Z,5.03
2023-04-02T02:47:29.488Z,5.78
2023-04-02T02:50:09.097Z,3.35
2023-04-02T02:52:38.959Z,2.63
2023-04-02T02:55:14.245Z,2.22
2023-04-02T02:57:50.482Z,3.33
2023-04-02T03:00:21.011Z,2.33
2023-04-02T03:02:52.817Z,2.97
2023-04-02T03:05:26.177Z,6.55
2023-04-02T03:07:59.347Z,1.88
2023-04-02T03:10:36.893Z,5.65
2023-04-02T03:13:13.674Z,2.53
2023-04-02T03:15:49.166Z,2.70
2023-04-02T03:18:28.699Z,5.15
2023-04-02T03:20:59.679Z,3.17
2023-04-02T03:23:31.926Z,2.88
2023-04-02T03:26:03.138Z,2.65
2023-04-02T03:28:34.033Z,2.53
2023-04-02T03:31:06.987Z,7.05
2023-04-02T03:33:41.084Z,2.90
2023-04-02T03:36:19.956Z,4.43
2023-04-02T03:38:53.068Z,2.45
2023-04-02T03:41:27.385Z,4.30
2023-04-02T03:44:00.062Z,2.75
2023-04-02T03:46:33.933Z,2.03
2023-04-02T03:49:10.733Z,2.00
2023-04-02T03:51:42.743Z,3.75
2023-04-02T03:54:16.659Z,2.35
2023-04-02T03:56:47.726Z,2.78
2023-04-02T03:59:32.141Z,5.80
2023-04-02T04:02:04.965Z,2.13
2023-04-02T04:04:39.730Z,2.30
2023-04-02T04:07:13.195Z,1.80
2023-04-02T04:09:46.703Z,2.40
2023-04-02T04:12:25.825Z,3.30
2023-04-02T04:14:59.667Z,2.53
2023-04-02T04:17:35.501Z,3.33
2023-04-02T04:20:17.445Z,2.28
2023-04-02T04:22:45.676Z,3.35
2023-04-02T04:25:23.671Z,2.95
2023-04-02T04:28:05.880Z,2.53
2023-04-02T04:30:46.206Z,2.28
2023-04-02T04:33:22.498Z,2.00
2023-04-02T04:35:57.314Z,1.90
2023-04-02T04:38:33.790Z,3.05
2023-04-02T04:41:06.988Z,7.30
2023-04-02T04:43:45.832Z,3.50
2023-04-02T04:46:18.594Z,5.25
2023-04-02T04:48:54.588Z,3.08
2023-04-02T04:51:28.546Z,2.97
2023-04-02T04:53:57.681Z,2.60
2023-04-02T04:56:31.215Z,2.50
2023-04-02T04:59:18.128Z,2.28
2023-04-02T05:01:53.037Z,2.40
2023-04-02T05:04:27.433Z,2.80
2023-04-02T05:07:01.665Z,2.30
2023-04-02T05:09:35.083Z,2.40
2023-04-02T05:12:13.494Z,2.30
2023-04-02T05:14:47.388Z,3.78
2023-04-02T05:17:23.489Z,3.15
2023-04-02T05:19:56.946Z,2.90
2023-04-02T05:22:36.045Z,2.55
2023-04-02T05:25:19.361Z,2.47
2023-04-02T05:27:53.812Z,3.38
2023-04-02T05:30:47.080Z,2.45
2023-04-02T05:33:24.511Z,1.90
2023-04-02T05:35:59.862Z,3.00
2023-04-02T05:38:36.449Z,3.47
2023-04-02T05:41:09.175Z,5.63
2023-04-02T05:43:40.593Z,1.70
2023-04-02T05:46:18.926Z,1.90
2023-04-02T05:48:52.242Z,2.22
2023-04-02T05:51:24.447Z,2.60
2023-04-02T05:53:58.423Z,2.17
2023-04-02T05:56:33.255Z,2.20
2023-04-02T05:59:08.771Z,2.00
2023-04-02T06:01:45.617Z,2.22
2023-04-02T06:04:27.694Z,1.95
2023-04-02T06:07:04.482Z,3.63
2023-04-02T06:09:42.202Z,6.68
2023-04-02T06:12:19.733Z,2.92
2023-04-02T06:14:48.652Z,2.10
2023-04-02T06:17:19.508Z,2.17
2023-04-02T06:19:48.924Z,3.10
2023-04-02T06:22:25.735Z,2.55
2023-04-02T06:25:03.735Z,2.35
2023-04-02T06:27:39.444Z,1.70
2023-04-02T06:30:18.112Z,3.72
2023-04-02T06:32:49.110Z,2.90
2023-04-02T06:35:18.830Z,2.35
2023-04-02T06:37:59.506Z,3.17
2023-04-02T06:40:40.420Z,2.65
2023-04-02T06:43:21.924Z,4.90
2023-04-02T06:46:10.672Z,2.33
2023-04-02T06:49:01.605Z,3.58
2023-04-02T06:51:31.550Z,3.00
2023-04-02T06:53:59.929Z,1.70
2023-04-02T06:56:42.350Z,1.75
2023-04-02T06:59:13.561Z,3.80
2023-04-02T07:01:47.598Z,1.90
2023-04-02T07:04:16.054Z,2.97
2023-04-02T07:06:49.291Z,2.55
2023-04-02T07:09:17.957Z,3.15
2023-04-02T07:11:52.237Z,3.45
2023-04-02T07:14:21.297Z,2.10
2023-04-02T07:16:49.356Z,4.72
2023-04-02T07:19:20.357Z,2.65
2023-04-02T07:21:50.381Z,2.42
2023-04-02T07:24:18.969Z,2.38
2023-04-02T07:26:48.292Z,7.20
2023-04-02T07:29:19.800Z,3.85
2023-04-02T07:31:47.907Z,4.53
2023-04-02T07:34:16.241Z,8.30
2023-04-02T07:36:44.234Z,8.73
2023-04-02T07:39:12.240Z,4.35
2023-04-02T07:41:52.658Z,4.20
2023-04-02T07:44:21.987Z,3.00
2023-04-02T07:46:50.263Z,3.95
2023-04-02T07:49:18.296Z,6.70
2023-04-02T07:51:46.542Z,3.33
2023-04-02T07:54:14.506Z,8.55
2023-04-02T07:56:42.455Z,2.10
2023-04-02T07:59:11.195Z,6.95
2023-04-02T08:01:42.885Z,2.83
2023-04-02T08:04:19.214Z,5.93
2023-04-02T08:06:47.961Z,6.78
2023-04-02T08:09:16.276Z,13.15
2023-04-02T08:11:44.321Z,2.30
2023-04-02T08:14:12.324Z,4.50
2023-04-02T08:16:53.212Z,2.95
2023-04-02T08:19:21.469Z,3.75
2023-04-02T08:21:51.492Z,3.30
2023-04-02T08:24:20.400Z,12.27
2023-04-02T08:26:49.998Z,4.40
2023-04-02T08:29:18.535Z,5.53
2023-04-02T08:31:46.680Z,7.00
2023-04-02T08:34:16.237Z,2.40
2023-04-02T08:36:46.417Z,3.03
2023-04-02T08:39:14.757Z,4.05
2023-04-02T08:41:46.815Z,9.18
2023-04-02T08:44:23.968Z,3.08
2023-04-02T08:46:56.192Z,7.88
2023-04-02T08:49:34.471Z,3.20
2023-04-02T08:52:02.535Z,2.90
2023-04-02T08:54:34.850Z,6.38
2023-04-02T08:57:08.358Z,12.25
2023-04-02T08:59:39.029Z,4.00
2023-04-02T09:02:25.980Z,10.27
2023-04-02T09:05:00.303Z,2.83
2023-04-02T09:07:28.705Z,12.98
2023-04-02T09:09:58.041Z,8.20
2023-04-02T09:12:31.204Z,12.45
2023-04-02T09:15:12.692Z,4.90
2023-04-02T09:17:53.579Z,9.23
2023-04-02T09:20:29.283Z,3.58
2023-04-02T09:22:58.813Z,3.45
2023-04-02T09:25:29.593Z,2.80
2023-04-02T09:27:59.910Z,8.38
2023-04-02T09:30:41.914Z,2.35
2023-04-02T09:33:10.115Z,5.97
2023-04-02T09:35:56.317Z,5.20
2023-04-02T09:38:30.601Z,4.18
2023-04-02T09:41:02.208Z,8.98
2023-04-02T09:43:31.824Z,1.88
2023-04-02T09:46:02.149Z,4.15
2023-04-02T09:48:33.745Z,2.63
2023-04-02T09:51:12.385Z,2.50
2023-04-02T09:53:42.693Z,2.22
2023-04-02T09:56:16.772Z,7.00
2023-04-02T09:58:45.966Z,3.45
2023-04-02T10:01:30.378Z,2.95
2023-04-02T10:04:00.367Z,2.75
2023-04-02T10:06:31.835Z,2.40
2023-04-02T10:09:19.393Z,2.15
2023-04-02T10:11:47.946Z,2.53
2023-04-02T10:14:20.362Z,6.65
2023-04-02T10:16:51.956Z,2.85
2023-04-02T10:19:28.721Z,2.35
2023-04-02T10:22:01.542Z,2.47
2023-04-02T10:24:30.159Z,2.30
2023-04-02T10:27:04.093Z,12.32
2023-04-02T10:29:50.863Z,3.10
2023-04-02T10:32:22.617Z,7.05
2023-04-02T10:34:57.456Z,2.50
2023-04-02T10:37:57.284Z,2.42
2023-04-02T10:40:29.973Z,2.58
2023-04-02T10:43:41.639Z,2.30
2023-04-02T10:46:18.895Z,2.00
2023-04-02T10:48:55.009Z,3.92
2023-04-02T10:51:32.048Z,2.25
2023-04-02T10:54:13.444Z,3.40
2023-04-02T10:56:50.750Z,3.15
2023-04-02T10:59:24.069Z,2.17
2023-04-02T11:01:53.564Z,5.68
2023-04-02T11:04:26.188Z,3.00
2023-04-02T11:07:07.573Z,2.60
2023-04-02T11:09:47.801Z,2.95
2023-04-02T11:12:22.994Z,3.15
2023-04-02T11:14:58.195Z,3.58
2023-04-02T11:17:26.432Z,7.40
2023-04-02T11:19:54.618Z,2.50
2023-04-02T11:22:26.380Z,20.27
2023-04-02T11:24:58.109Z,7.10
2023-04-02T11:27:28.766Z,2.60
2023-04-02T11:30:05.629Z,3.65
2023-04-02T11:32:39.509Z,2.03
2023-04-02T11:35:37.512Z,2.58
2023-04-02T11:38:47.284Z,1.75
2023-04-02T11:41:51.579Z,1.95
2023-04-02T11:44:26.106Z,2.47
2023-04-02T11:46:54.150Z,5.00
2023-04-02T11:49:40.796Z,1.75
2023-04-02T11:52:26.150Z,4.15
2023-04-02T11:55:03.133Z,1.75
2023-04-02T11:58:16.227Z,1.95
2023-04-02T12:01:22.910Z,2.10
2023-04-02T12:04:11.992Z,2.97
2023-04-02T12:06:57.107Z,5.60
2023-04-02T12:09:29.442Z,1.90
2023-04-02T12:11:59.950Z,1.92
2023-04-02T12:14:47.385Z,2.30
2023-04-02T12:17:22.337Z,3.45
2023-04-02T12:19:54.878Z,15.57
2023-04-02T12:22:25.594Z,2.17
2023-04-02T12:24:58.927Z,2.70
2023-04-02T12:27:29.448Z,4.20
2023-04-02T12:30:11.636Z,2.22
2023-04-02T12:32:39.919Z,2.13
2023-04-02T12:35:28.295Z,1.90
2023-04-02T12:37:57.077Z,1.90
2023-04-02T12:40:26.623Z,1.90
2023-04-02T12:42:54.605Z,1.95
2023-04-02T12:45:27.258Z,4.82
2023-04-02T12:47:58.244Z,8.15
2023-04-02T12:50:30.129Z,2.13
2023-04-02T12:53:04.169Z,1.65
2023-04-02T12:55:33.506Z,2.92
2023-04-02T12:58:01.612Z,1.95
2023-04-02T13:00:32.497Z,2.13
2023-04-02T13:03:21.303Z,2.83
2023-04-02T13:05:56.648Z,4.20
2023-04-02T13:08:27.387Z,2.00
2023-04-02T13:10:57.668Z,1.90
2023-04-02T13:13:30.624Z,1.90
2023-04-02T13:16:03.894Z,4.10
2023-04-02T13:18:32.993Z,1.73
2023-04-02T13:21:03.156Z,3.75
2023-04-02T13:23:37.401Z,4.25
2023-04-02T13:26:19.038Z,1.85
2023-04-02T13:29:02.557Z,2.88
2023-04-02T13:31:31.776Z,1.70
2023-04-02T13:34:00.375Z,3.50
2023-04-02T13:36:29.914Z,2.38
2023-04-02T13:38:57.967Z,10.23
2023-04-02T13:41:27.660Z,2.35
2023-04-02T13:43:56.594Z,2.85
2023-04-02T13:46:27.651Z,4.28
2023-04-02T13:48:56.744Z,1.70
2023-04-02T13:51:32.825Z,1.80
2023-04-02T13:54:05.337Z,3.05
2023-04-02T13:56:33.529Z,4.47
2023-04-02T13:59:06.983Z,2.55
2023-04-02T14:01:35.161Z,1.90
2023-04-02T14:04:05.765Z,3.55
2023-04-02T14:06:52.534Z,3.88
2023-04-02T14:09:30.494Z,3.72
2023-04-02T14:12:06.659Z,2.30
2023-04-02T14:15:11.005Z,2.67
2023-04-02T14:17:52.637Z,2.20
2023-04-02T14:20:41.044Z,6.75
2023-04-02T14:23:26.467Z,2.70
2023-04-02T14:26:05.930Z,8.45
2023-04-02T14:28:50.594Z,2.90
2023-04-02T14:31:25.334Z,2.05
2023-04-02T14:33:59.403Z,4.20
2023-04-02T14:36:36.027Z,4.13
2023-04-02T14:39:10.215Z,2.75
2023-04-02T14:41:48.299Z,2.47
2023-04-02T14:44:20.005Z,2.78
2023-04-02T14:46:48.148Z,2.30
2023-04-02T14:49:23.940Z,1.80
2023-04-02T14:51:58.106Z,3.83
2023-04-02T14:54:34.203Z,2.38
2023-04-02T14:57:11.480Z,7.65
2023-04-02T14:59:48.676Z,1.80
2023-04-02T15:02:24.770Z,3.63
2023-04-02T15:05:01.187Z,4.28
2023-04-02T15:07:35.540Z,1.60
2023-04-02T15:10:10.081Z,2.35
2023-04-02T15:12:43.266Z,1.88
2023-04-02T15:15:33.076Z,3.67
2023-04-02T15:18:10.674Z,2.58
2023-04-02T15:20:44.134Z,1.80
2023-04-02T15:23:17.076Z,2.40
2023-04-02T15:25:49.625Z,2.63
2023-04-02T15:28:26.703Z,7.88
2023-04-02T15:30:58.839Z,4.80
2023-04-02T15:33:45.853Z,2.83
2023-04-02T15:36:40.835Z,3.90
2023-04-02T15:39:30.654Z,1.80
2023-04-02T15:42:10.391Z,3.30
2023-04-02T15:44:53.457Z,2.38
2023-04-02T15:47:29.800Z,1.73
2023-04-02T15:50:07.706Z,7.03
2023-04-02T15:52:43.999Z,7.22
2023-04-02T15:55:22.516Z,4.25
2023-04-02T15:58:15.478Z,2.25
2023-04-02T16:00:52.960Z,8.82
2023-04-02T16:03:55.760Z,2.35
2023-04-02T16:06:29.501Z,2.30
2023-04-02T16:09:22.078Z,2.30
2023-04-02T16:11:54.889Z,2.60
2023-04-02T16:14:27.453Z,4.30
2023-04-02T16:17:08.110Z,5.45
2023-04-02T16:19:46.554Z,13.25
2023-04-02T16:22:21.391Z,10.07
2023-04-02T16:24:55.378Z,2.60
2023-04-02T16:27:31.569Z,4.30
2023-04-02T16:30:23.678Z,6.38
2023-04-02T16:33:29.211Z,7.50
2023-04-02T16:36:12.693Z,3.08
2023-04-02T16:38:53.337Z,3.78
2023-04-02T16:41:29.511Z,1.95
2023-04-02T16:44:06.194Z,1.90
2023-04-02T16:46:41.963Z,2.05
2023-04-02T16:49:21.150Z,3.40
2023-04-02T16:52:01.041Z,2.22
2023-04-02T16:54:34.074Z,2.05
2023-04-02T16:57:18.423Z,7.82
2023-04-02T16:59:57.872Z,5.03
2023-04-02T17:02:36.779Z,17.13
2023-04-02T17:05:16.468Z,26.40
2023-04-02T17:07:54.361Z,36.65
2023-04-02T17:10:29.915Z,50.00
2023-04-02T17:13:06.755Z,51.25
2023-04-02T17:15:39.082Z,39.65
2023-04-02T17:18:14.728Z,42.08
2023-04-02T17:20:42.786Z,47.88
2023-04-02T17:23:14.577Z,57.72
2023-04-02T17:25:49.824Z,36.20
2023-04-02T17:28:25.205Z,37.35
2023-04-02T17:30:56.601Z,31.52
2023-04-02T17:33:26.922Z,25.45
2023-04-02T17:36:10.037Z,36.53
2023-04-02T17:38:46.600Z,38.42
2023-04-02T17:41:23.044Z,33.25
2023-04-02T17:44:02.260Z,44.20
2023-04-02T17:46:39.109Z,43.40
2023-04-02T17:49:16.610Z,35.42
2023-04-02T17:51:50.564Z,32.65
2023-04-02T17:54:33.303Z,35.00
2023-04-02T17:57:18.419Z,34.53
2023-04-02T18:00:03.837Z,39.38
2023-04-02T18:03:00.399Z,39.80
2023-04-02T18:05:36.341Z,46.67
2023-04-02T18:08:16.869Z,48.50
2023-04-02T18:10:54.647Z,41.10
2023-04-02T18:13:33.866Z,29.85
2023-04-02T18:16:47.106Z,38.10
2023-04-02T18:19:20.301Z,37.80
2023-04-02T18:21:55.351Z,41.30
2023-04-02T18:24:34.381Z,37.05
2023-04-02T18:27:18.135Z,42.03
2023-04-02T18:29:55.348Z,37.30
2023-04-02T18:32:41.949Z,39.45
2023-04-02T18:35:19.403Z,36.83
2023-04-02T18:38:00.932Z,39.63
2023-04-02T18:40:39.446Z,24.30
2023-04-02T18:43:22.031Z,27.77
2023-04-02T18:45:57.265Z,47.67
2023-04-02T18:48:41.024Z,26.38
2023-04-02T18:51:17.096Z,29.77
2023-04-02T18:53:46.113Z,28.20
2023-04-02T18:56:19.645Z,24.85
2023-04-02T18:58:57.031Z,28.10
2023-04-02T19:01:31.564Z,29.92
2023-04-02T19:04:05.097Z,23.25
2023-04-02T19:06:38.506Z,19.75
2023-04-02T19:09:15.251Z,25.83
2023-04-02T19:11:43.391Z,24.65
2023-04-02T19:14:17.011Z,30.85
2023-04-02T19:17:02.810Z,21.80
2023-04-02T19:19:38.136Z,23.73
2023-04-02T19:22:24.228Z,20.67
2023-04-02T19:25:15.851Z,42.28
2023-04-02T19:27:58.208Z,30.90
2023-04-02T19:30:43.922Z,18.48
2023-04-02T19:33:25.782Z,22.35
2023-04-02T19:35:59.164Z,23.17
2023-04-02T19:38:49.237Z,34.38
2023-04-02T19:41:26.251Z,21.92
2023-04-02T19:43:54.902Z,26.67
2023-04-02T19:46:25.351Z,17.48
2023-04-02T19:49:03.111Z,19.42
2023-04-02T19:51:31.276Z,22.92
2023-04-02T19:53:59.293Z,20.80
2023-04-02T19:56:27.801Z,18.02
2023-04-02T19:58:56.825Z,12.65
2023-04-02T20:01:28.026Z,22.35
2023-04-02T20:03:56.399Z,15.10
2023-04-02T20:06:24.498Z,17.02
2023-04-02T20:08:52.626Z,17.25
2023-04-02T20:11:21.028Z,21.23
2023-04-02T20:13:50.104Z,13.75
2023-04-02T20:16:18.223Z,15.40
2023-04-02T20:18:48.111Z,15.63
2023-04-02T20:21:16.251Z,20.17
2023-04-02T20:23:44.278Z,16.25
2023-04-02T20:26:13.322Z,18.98
2023-04-02T20:28:41.468Z,19.23
2023-04-02T20:31:11.746Z,13.30
2023-04-02T20:33:41.126Z,25.95
2023-04-02T20:36:13.807Z,15.07
2023-04-02T20:38:42.020Z,21.77
2023-04-02T20:41:10.902Z,16.58
2023-04-02T20:43:40.636Z,13.18
2023-04-02T20:46:12.058Z,16.73
2023-04-02T20:48:41.291Z,11.02
2023-04-02T20:51:12.479Z,17.65
2023-04-02T20:53:40.809Z,16.13
2023-04-02T20:56:10.576Z,14.05
2023-04-02T20:58:39.493Z,13.13
2023-04-02T21:01:09.624Z,13.98
2023-04-02T21:03:39.799Z,20.15
2023-04-02T21:06:13.015Z,12.18
2023-04-02T21:08:41.076Z,10.20
2023-04-02T21:11:09.896Z,14.60
2023-04-02T21:13:38.157Z,14.75
2023-04-02T21:16:12.686Z,10.50
2023-04-02T21:18:40.847Z,14.68
2023-04-02T21:21:13.609Z,10.60
2023-04-02T21:23:42.383Z,9.40
2023-04-02T21:26:14.699Z,12.23
2023-04-02T21:28:43.909Z,15.90
2023-04-02T21:31:14.060Z,13.00
2023-04-02T21:33:47.297Z,11.77
2023-04-02T21:36:20.371Z,12.13
2023-04-02T21:38:50.464Z,9.38
2023-04-02T21:41:23.417Z,5.60
2023-04-02T21:43:51.866Z,6.30
2023-04-02T21:46:26.784Z,8.18
2023-04-02T21:48:56.329Z,11.88
2023-04-02T21:51:28.011Z,7.55
2023-04-02T21:54:00.035Z,20.60
2023-04-02T21:56:29.911Z,9.25
2023-04-02T21:59:01.764Z,7.93
2023-04-02T22:01:40.467Z,7.57
2023-04-02T22:04:10.432Z,8.38
2023-04-02T22:06:41.441Z,9.13
2023-04-02T22:09:11.282Z,11.10
2023-04-02T22:11:43.261Z,8.02
2023-04-02T22:14:11.998Z,8.68
2023-04-02T22:16:41.015Z,5.45
2023-04-02T22:19:11.179Z,10.43
2023-04-02T22:21:41.094Z,15.30
2023-04-02T22:24:12.731Z,10.63
2023-04-02T22:26:41.347Z,8.02
2023-04-02T22:29:09.537Z,9.10
2023-04-02T22:31:37.755Z,5.75
2023-04-02T22:34:07.373Z,9.88
2023-04-02T22:36:37.944Z,5.68
2023-04-02T22:39:10.217Z,6.07
2023-04-02T22:41:38.360Z,12.23
2023-04-02T22:44:09.493Z,17.05
2023-04-02T22:46:37.467Z,5.53
2023-04-02T22:49:05.427Z,11.88
2023-04-02T22:51:33.393Z,6.88
2023-04-02T22:54:13.581Z,5.10
2023-04-02T22:56:41.639Z,7.10
2023-04-02T22:59:09.586Z,6.20
2023-04-02T23:01:41.075Z,10.35
2023-04-02T23:04:09.791Z,5.90
2023-04-02T23:06:40.034Z,4.90
2023-04-02T23:09:14.673Z,7.88
2023-04-02T23:11:42.831Z,5.60
2023-04-02T23:14:11.050Z,5.70
2023-04-02T23:16:39.022Z,6.65
2023-04-02T23:19:07.283Z,6.32
2023-04-02T23:21:35.275Z,8.18
2023-04-02T23:24:03.670Z,5.25
2023-04-02T23:26:33.083Z,11.27
2023-04-02T23:29:02.381Z,10.90
2023-04-02T23:31:30.783Z,7.03
2023-04-02T23:33:59.182Z,4.18
2023-04-02T23:36:29.213Z,3.08
2023-04-02T23:38:59.784Z,6.22
2023-04-02T23:41:28.362Z,2.92
2023-04-02T23:43:59.262Z,4.90
2023-04-02T23:46:27.829Z,3.47
2023-04-02T23:48:57.715Z,4.47
2023-04-02T23:51:27.229Z,8.55
2023-04-02T23:53:56.655Z,5.63
2023-04-02T23:56:25.937Z,2.97
2023-04-02T23:58:53.985Z,6.28
